createdAt,value
2023-03-17T00:01:16.628Z,49.21
2023-03-17T00:03:47.758Z,49.35
2023-03-17T00:06:17.795Z,48.59
2023-03-17T00:08:47.252Z,48.96
2023-03-17T00:11:17.170Z,48.98
2023-03-17T00:13:46.069Z,48.96
2023-03-17T00:16:19.994Z,48.60
2023-03-17T00:18:49.350Z,48.49
2023-03-17T00:21:19.687Z,48.55
2023-03-17T00:23:51.637Z,48.87
2023-03-17T00:26:19.627Z,48.51
2023-03-17T00:28:47.160Z,48.38
2023-03-17T00:31:16.886Z,48.36
2023-03-17T00:33:46.577Z,48.76
2023-03-17T00:36:17.921Z,48.43
2023-03-17T00:38:45.934Z,48.44
2023-03-17T00:41:14.044Z,48.63
2023-03-17T00:43:42.787Z,48.53
2023-03-17T00:46:14.569Z,48.07
2023-03-17T00:48:43.333Z,47.66
2023-03-17T00:51:12.233Z,48.09
2023-03-17T00:53:40.419Z,47.98
2023-03-17T00:56:14.291Z,47.86
2023-03-17T00:58:42.330Z,47.77
2023-03-17T01:01:10.708Z,47.45
2023-03-17T01:03:38.705Z,47.33
2023-03-17T01:06:08.826Z,46.64
2023-03-17T01:08:38.604Z,46.67
2023-03-17T01:11:06.635Z,46.30
2023-03-17T01:13:34.302Z,46.74
2023-03-17T01:16:02.587Z,46.80
2023-03-17T01:18:30.300Z,46.97
2023-03-17T01:20:58.059Z,47.76
2023-03-17T01:23:25.926Z,46.43
2023-03-17T01:25:55.051Z,46.26
2023-03-17T01:28:23.152Z,46.04
2023-03-17T01:30:51.049Z,46.28
2023-03-17T01:33:18.996Z,46.05
2023-03-17T01:35:46.655Z,46.05
2023-03-17T01:38:14.858Z,46.42
2023-03-17T01:40:45.885Z,46.67
2023-03-17T01:43:22.413Z,46.79
2023-03-17T01:46:26.003Z,46.80
2023-03-17T01:49:23.523Z,46.96
2023-03-17T01:51:58.612Z,46.93
2023-03-17T01:54:31.528Z,47.03
2023-03-17T01:57:03.712Z,46.58
2023-03-17T01:59:37.600Z,46.78
2023-03-17T02:02:09.007Z,46.83
2023-03-17T02:04:36.844Z,46.87
2023-03-17T02:07:05.057Z,46.70
2023-03-17T02:09:33.973Z,46.85
2023-03-17T02:12:03.719Z,46.72
2023-03-17T02:14:32.548Z,46.86
2023-03-17T02:17:00.062Z,47.01
2023-03-17T02:19:27.606Z,46.94
2023-03-17T02:21:57.897Z,47.31
2023-03-17T02:24:33.142Z,46.99
2023-03-17T02:27:03.605Z,46.51
2023-03-17T02:29:34.013Z,46.89
2023-03-17T02:32:01.855Z,47.02
2023-03-17T02:34:29.383Z,46.25
2023-03-17T02:36:59.145Z,46.60
2023-03-17T02:39:27.395Z,46.35
2023-03-17T02:41:54.916Z,46.67
2023-03-17T02:44:22.521Z,46.20
2023-03-17T02:46:50.166Z,46.73
2023-03-17T02:49:18.743Z,46.16
2023-03-17T02:51:46.268Z,46.40
2023-03-17T02:54:15.310Z,46.05
2023-03-17T02:56:42.791Z,46.68
2023-03-17T02:59:10.445Z,46.20
2023-03-17T03:01:38.740Z,46.05
2023-03-17T03:04:07.097Z,47.12
2023-03-17T03:06:34.641Z,47.29
2023-03-17T03:09:02.130Z,46.34
2023-03-17T03:11:31.031Z,46.10
2023-03-17T03:13:58.510Z,46.51
2023-03-17T03:16:26.189Z,46.45
2023-03-17T03:18:53.736Z,46.16
2023-03-17T03:21:21.982Z,46.38
2023-03-17T03:23:49.530Z,46.42
2023-03-17T03:26:17.215Z,46.45
2023-03-17T03:28:46.151Z,46.17
2023-03-17T03:31:13.803Z,46.11
2023-03-17T03:33:41.478Z,45.92
2023-03-17T03:36:09.984Z,46.12
2023-03-17T03:38:37.764Z,46.35
2023-03-17T03:41:06.245Z,46.50
2023-03-17T03:43:33.849Z,46.64
2023-03-17T03:46:03.059Z,46.27
2023-03-17T03:48:30.726Z,46.36
2023-03-17T03:50:59.506Z,46.24
2023-03-17T03:53:27.511Z,46.35
2023-03-17T03:55:55.900Z,46.34
2023-03-17T03:58:23.919Z,46.61
2023-03-17T04:00:51.488Z,46.36
2023-03-17T04:03:20.557Z,46.28
2023-03-17T04:05:48.045Z,46.66
2023-03-17T04:08:15.791Z,46.30
2023-03-17T04:10:43.419Z,46.01
2023-03-17T04:13:10.886Z,46.27
2023-03-17T04:15:38.424Z,46.24
2023-03-17T04:18:06.220Z,45.90
2023-03-17T04:20:35.348Z,45.87
2023-03-17T04:23:02.828Z,45.92
2023-03-17T04:25:30.794Z,45.73
2023-03-17T04:27:58.784Z,46.04
2023-03-17T04:30:26.473Z,45.80
2023-03-17T04:32:53.993Z,45.85
2023-03-17T04:35:22.632Z,45.95
2023-03-17T04:37:51.844Z,45.75
2023-03-17T04:40:20.108Z,45.61
2023-03-17T04:42:47.713Z,45.84
2023-03-17T04:45:16.595Z,46.31
2023-03-17T04:47:45.891Z,45.64
2023-03-17T04:50:14.124Z,45.85
2023-03-17T04:52:42.025Z,45.86
2023-03-17T04:55:11.796Z,46.15
2023-03-17T04:57:39.268Z,46.01
2023-03-17T05:00:08.353Z,46.33
2023-03-17T05:02:35.900Z,45.83
2023-03-17T05:05:03.395Z,46.17
2023-03-17T05:07:33.870Z,46.19
2023-03-17T05:10:02.034Z,46.43
2023-03-17T05:12:30.899Z,46.55
2023-03-17T05:14:58.501Z,45.98
2023-03-17T05:17:26.001Z,46.11
2023-03-17T05:19:53.448Z,46.39
2023-03-17T05:22:21.026Z,46.19
2023-03-17T05:24:48.611Z,46.63
2023-03-17T05:27:16.395Z,46.34
2023-03-17T05:29:45.210Z,46.26
2023-03-17T05:32:13.538Z,46.46
2023-03-17T05:34:41.032Z,46.59
2023-03-17T05:37:08.649Z,46.93
2023-03-17T05:39:36.306Z,46.63
2023-03-17T05:42:04.072Z,46.83
2023-03-17T05:44:31.744Z,47.20
2023-03-17T05:47:00.835Z,46.92
2023-03-17T05:49:28.693Z,46.65
2023-03-17T05:51:56.795Z,46.45
2023-03-17T05:54:24.325Z,47.30
2023-03-17T05:56:52.275Z,47.60
2023-03-17T05:59:19.753Z,47.38
2023-03-17T06:01:47.316Z,47.30
2023-03-17T06:04:16.115Z,47.24
2023-03-17T06:06:43.655Z,47.09
2023-03-17T06:09:11.124Z,47.42
2023-03-17T06:11:38.900Z,47.62
2023-03-17T06:14:07.214Z,47.07
2023-03-17T06:16:34.742Z,47.16
2023-03-17T06:19:02.436Z,47.21
2023-03-17T06:21:31.358Z,47.47
2023-03-17T06:23:58.827Z,46.95
2023-03-17T06:26:27.097Z,47.59
2023-03-17T06:28:54.829Z,47.52
2023-03-17T06:31:23.823Z,47.67
2023-03-17T06:33:51.461Z,47.42
2023-03-17T06:36:18.923Z,47.36
2023-03-17T06:38:47.748Z,47.33
2023-03-17T06:41:16.082Z,46.87
2023-03-17T06:43:43.549Z,46.95
2023-03-17T06:46:11.115Z,46.75
2023-03-17T06:48:39.168Z,47.23
2023-03-17T06:51:07.053Z,47.04
2023-03-17T06:53:34.675Z,47.03
2023-03-17T06:56:04.927Z,47.01
2023-03-17T06:58:33.094Z,46.83
2023-03-17T07:01:00.604Z,46.63
2023-03-17T07:03:28.570Z,46.63
2023-03-17T07:05:56.061Z,46.58
2023-03-17T07:08:23.560Z,46.48
2023-03-17T07:10:51.531Z,46.88
2023-03-17T07:13:20.847Z,46.55
2023-03-17T07:15:49.284Z,46.22
2023-03-17T07:18:17.072Z,46.33
2023-03-17T07:20:44.788Z,45.83
2023-03-17T07:23:15.595Z,45.98
2023-03-17T07:25:43.630Z,45.84
2023-03-17T07:28:11.322Z,46.09
2023-03-17T07:30:40.227Z,46.47
2023-03-17T07:33:07.770Z,46.36
2023-03-17T07:35:35.480Z,46.43
2023-03-17T07:38:03.076Z,46.07
2023-03-17T07:40:30.693Z,46.23
2023-03-17T07:42:59.439Z,46.04
2023-03-17T07:45:27.841Z,45.56
2023-03-17T07:47:56.736Z,46.01
2023-03-17T07:50:24.278Z,46.05
2023-03-17T07:52:51.758Z,46.22
2023-03-17T07:55:19.415Z,46.10
2023-03-17T07:57:47.071Z,45.97
2023-03-17T08:00:16.241Z,45.75
2023-03-17T08:02:44.446Z,45.64
2023-03-17T08:05:16.147Z,45.81
2023-03-17T08:07:43.723Z,45.82
2023-03-17T08:10:13.767Z,45.41
2023-03-17T08:12:41.624Z,45.33
2023-03-17T08:15:10.210Z,44.99
2023-03-17T08:17:37.809Z,45.40
2023-03-17T08:20:05.960Z,45.19
2023-03-17T08:22:34.915Z,45.65
2023-03-17T08:25:02.548Z,46.06
2023-03-17T08:27:31.957Z,46.30
2023-03-17T08:30:01.052Z,46.23
2023-03-17T08:32:28.591Z,46.02
2023-03-17T08:34:56.176Z,44.89
2023-03-17T08:37:24.604Z,45.79
2023-03-17T08:39:53.461Z,45.40
2023-03-17T08:42:21.489Z,44.54
2023-03-17T08:44:48.991Z,45.88
2023-03-17T08:47:16.525Z,45.16
2023-03-17T08:49:44.031Z,45.34
2023-03-17T08:52:11.569Z,44.96
2023-03-17T08:54:39.104Z,44.77
2023-03-17T08:57:07.953Z,45.13
2023-03-17T08:59:35.508Z,45.07
2023-03-17T09:02:02.941Z,44.84
2023-03-17T09:04:30.448Z,45.06
2023-03-17T09:07:03.784Z,44.87
2023-03-17T09:09:32.074Z,45.28
2023-03-17T09:11:59.562Z,45.02
2023-03-17T09:14:29.548Z,45.49
2023-03-17T09:16:57.192Z,44.82
2023-03-17T09:19:25.023Z,44.91
2023-03-17T09:21:52.802Z,45.54
2023-03-17T09:24:21.200Z,45.25
2023-03-17T09:26:48.596Z,45.08
2023-03-17T09:29:16.373Z,45.29
2023-03-17T09:31:45.159Z,44.77
2023-03-17T09:34:12.654Z,44.33
2023-03-17T09:36:40.112Z,44.78
2023-03-17T09:39:07.533Z,44.31
2023-03-17T09:42:00.435Z,44.49
2023-03-17T09:44:47.616Z,43.87
2023-03-17T09:47:36.491Z,43.59
2023-03-17T09:50:10.572Z,43.50
2023-03-17T09:52:38.796Z,43.38
2023-03-17T09:55:09.253Z,43.30
2023-03-17T09:57:38.789Z,43.06
2023-03-17T10:00:14.721Z,42.88
2023-03-17T10:02:44.076Z,43.03
2023-03-17T10:05:20.490Z,43.28
2023-03-17T10:07:56.609Z,43.17
2023-03-17T10:10:30.896Z,42.94
2023-03-17T10:13:09.374Z,43.65
2023-03-17T10:15:42.909Z,43.12
2023-03-17T10:18:14.239Z,42.86
2023-03-17T10:20:51.546Z,42.80
2023-03-17T10:23:24.701Z,42.42
2023-03-17T10:25:53.060Z,42.19
2023-03-17T10:28:27.342Z,42.36
2023-03-17T10:30:55.201Z,42.39
2023-03-17T10:33:24.033Z,42.48
2023-03-17T10:35:51.602Z,42.15
2023-03-17T10:38:21.911Z,42.22
2023-03-17T10:40:58.034Z,42.15
2023-03-17T10:43:30.885Z,41.94
2023-03-17T10:46:03.543Z,41.85
2023-03-17T10:48:36.989Z,41.59
2023-03-17T10:51:09.000Z,41.79
2023-03-17T10:53:43.230Z,41.53
2023-03-17T10:56:20.224Z,41.47
2023-03-17T10:58:49.808Z,41.67
2023-03-17T11:01:21.793Z,41.99
2023-03-17T11:03:51.491Z,41.40
2023-03-17T11:06:20.573Z,40.96
2023-03-17T11:08:50.290Z,40.98
2023-03-17T11:11:27.042Z,40.70
2023-03-17T11:14:03.000Z,41.08
2023-03-17T11:16:33.070Z,40.90
2023-03-17T11:19:03.437Z,40.45
2023-03-17T11:21:32.502Z,40.26
2023-03-17T11:24:08.129Z,39.95
2023-03-17T11:26:54.207Z,40.04
2023-03-17T11:29:27.589Z,40.38
2023-03-17T11:32:02.377Z,40.68
2023-03-17T11:34:44.558Z,40.38
2023-03-17T11:37:22.118Z,40.46
2023-03-17T11:39:58.756Z,40.47
2023-03-17T11:42:32.215Z,39.25
2023-03-17T11:45:22.565Z,39.80
2023-03-17T11:48:15.080Z,39.63
2023-03-17T11:50:53.127Z,39.14
2023-03-17T11:53:51.302Z,39.70
2023-03-17T11:56:21.786Z,38.84
2023-03-17T11:58:54.893Z,38.42
2023-03-17T12:01:27.951Z,38.57
2023-03-17T12:04:09.810Z,38.93
2023-03-17T12:06:44.448Z,39.00
2023-03-17T12:09:22.085Z,38.84
2023-03-17T12:11:51.777Z,38.13
2023-03-17T12:14:27.954Z,38.43
2023-03-17T12:17:04.701Z,38.49
2023-03-17T12:19:40.472Z,38.29
2023-03-17T12:22:19.184Z,38.67
2023-03-17T12:24:54.534Z,38.60
2023-03-17T12:27:25.900Z,39.15
2023-03-17T12:29:58.096Z,38.18
2023-03-17T12:32:29.579Z,38.61
2023-03-17T12:34:59.577Z,38.45
2023-03-17T12:37:30.018Z,38.62
2023-03-17T12:40:06.684Z,38.54
2023-03-17T12:42:42.428Z,38.78
2023-03-17T12:45:42.058Z,39.42
2023-03-17T12:48:26.364Z,39.21
2023-03-17T12:51:22.290Z,39.28
2023-03-17T12:53:51.782Z,39.17
2023-03-17T12:56:24.729Z,38.75
2023-03-17T12:58:53.889Z,38.75
2023-03-17T13:01:29.829Z,38.84
2023-03-17T13:04:02.966Z,39.09
2023-03-17T13:06:32.133Z,39.01
2023-03-17T13:09:39.480Z,39.09
2023-03-17T13:12:57.081Z,39.12
2023-03-17T13:15:30.654Z,38.99
2023-03-17T13:18:24.698Z,39.35
2023-03-17T13:21:10.248Z,39.45
2023-03-17T13:23:42.034Z,39.43
2023-03-17T13:26:13.261Z,38.87
2023-03-17T13:28:50.089Z,38.79
2023-03-17T13:31:34.498Z,38.90
2023-03-17T13:34:15.087Z,39.69
2023-03-17T13:36:55.548Z,38.91
2023-03-17T13:39:48.612Z,39.15
2023-03-17T13:42:29.335Z,39.16
2023-03-17T13:45:16.568Z,39.07
2023-03-17T13:47:45.746Z,38.78
2023-03-17T13:50:16.817Z,39.08
2023-03-17T13:52:49.330Z,39.46
2023-03-17T13:55:35.860Z,38.88
2023-03-17T13:58:34.175Z,39.30
2023-03-17T14:01:07.543Z,38.77
2023-03-17T14:03:41.659Z,38.73
2023-03-17T14:06:11.902Z,39.42
2023-03-17T14:08:46.009Z,38.84
2023-03-17T14:11:23.972Z,38.46
2023-03-17T14:14:08.910Z,39.12
2023-03-17T14:16:43.503Z,38.83
2023-03-17T14:19:18.151Z,38.55
2023-03-17T14:21:45.638Z,39.19
2023-03-17T14:24:20.665Z,39.70
2023-03-17T14:26:48.760Z,38.72
2023-03-17T14:29:18.515Z,38.77
2023-03-17T14:31:52.799Z,39.08
2023-03-17T14:34:22.937Z,39.28
2023-03-17T14:36:52.477Z,39.47
2023-03-17T14:39:25.721Z,39.01
2023-03-17T14:42:01.560Z,39.61
2023-03-17T14:44:36.090Z,39.63
2023-03-17T14:47:08.476Z,39.45
2023-03-17T14:49:37.232Z,39.65
2023-03-17T14:52:05.087Z,39.63
2023-03-17T14:54:35.783Z,40.04
2023-03-17T14:57:06.979Z,40.08
2023-03-17T14:59:36.246Z,39.84
2023-03-17T15:02:19.092Z,40.26
2023-03-17T15:04:54.446Z,39.84
2023-03-17T15:07:36.842Z,40.66
2023-03-17T15:10:07.279Z,40.39
2023-03-17T15:12:34.797Z,40.17
2023-03-17T15:15:05.404Z,40.26
2023-03-17T15:17:37.037Z,40.08
2023-03-17T15:20:07.714Z,40.91
2023-03-17T15:22:43.231Z,41.18
2023-03-17T15:25:20.933Z,41.31
2023-03-17T15:27:48.902Z,41.20
2023-03-17T15:30:17.877Z,41.22
2023-03-17T15:32:52.828Z,40.95
2023-03-17T15:35:20.243Z,41.31
2023-03-17T15:37:48.516Z,41.25
2023-03-17T15:40:16.563Z,41.57
2023-03-17T15:42:45.288Z,41.36
2023-03-17T15:45:16.212Z,41.87
2023-03-17T15:47:47.277Z,42.36
2023-03-17T15:50:17.815Z,41.79
2023-03-17T15:52:45.837Z,42.18
2023-03-17T15:55:19.129Z,42.19
2023-03-17T15:57:54.723Z,42.43
2023-03-17T16:00:25.233Z,42.13
2023-03-17T16:02:56.148Z,42.17
2023-03-17T16:05:26.489Z,42.55
2023-03-17T16:07:54.717Z,42.49
2023-03-17T16:10:25.219Z,42.29
2023-03-17T16:12:53.017Z,42.61
2023-03-17T16:15:23.611Z,42.88
2023-03-17T16:17:55.683Z,42.95
2023-03-17T16:20:25.980Z,42.78
2023-03-17T16:22:54.822Z,42.86
2023-03-17T16:25:25.901Z,42.95
2023-03-17T16:27:55.088Z,43.28
2023-03-17T16:30:24.774Z,43.72
2023-03-17T16:32:54.094Z,44.01
2023-03-17T16:35:23.624Z,43.71
2023-03-17T16:37:54.087Z,43.82
2023-03-17T16:40:24.930Z,44.13
2023-03-17T16:42:53.213Z,44.00
2023-03-17T16:45:26.966Z,44.50
2023-03-17T16:47:57.511Z,44.21
2023-03-17T16:50:27.906Z,44.20
2023-03-17T16:52:55.466Z,43.91
2023-03-17T16:55:24.072Z,44.51
2023-03-17T16:57:54.262Z,44.28
2023-03-17T17:00:25.016Z,44.23
2023-03-17T17:02:53.827Z,44.16
2023-03-17T17:05:24.895Z,44.10
2023-03-17T17:07:56.060Z,44.31
2023-03-17T17:10:25.560Z,44.42
2023-03-17T17:12:53.513Z,44.42
2023-03-17T17:15:22.627Z,44.61
2023-03-17T17:17:52.702Z,44.67
2023-03-17T17:20:24.772Z,44.70
2023-03-17T17:22:52.735Z,44.75
2023-03-17T17:25:20.233Z,45.00
2023-03-17T17:27:48.470Z,44.88
2023-03-17T17:30:17.964Z,44.68
2023-03-17T17:32:45.707Z,44.93
2023-03-17T17:35:13.740Z,44.95
2023-03-17T17:37:43.150Z,45.05
2023-03-17T17:40:14.189Z,44.80
2023-03-17T17:42:41.701Z,45.09
2023-03-17T17:45:10.172Z,44.80
2023-03-17T17:47:37.798Z,45.19
2023-03-17T17:50:07.002Z,45.41
2023-03-17T17:52:34.879Z,45.47
2023-03-17T17:55:03.794Z,45.71
2023-03-17T17:57:31.274Z,45.91
2023-03-17T17:59:58.691Z,46.26
2023-03-17T18:02:26.206Z,45.91
2023-03-17T18:04:53.708Z,46.36
2023-03-17T18:07:21.238Z,46.29
2023-03-17T18:09:48.720Z,46.94
2023-03-17T18:12:17.534Z,46.62
2023-03-17T18:14:44.978Z,46.96
2023-03-17T18:17:12.831Z,46.59
2023-03-17T18:19:40.329Z,46.22
2023-03-17T18:22:08.304Z,46.32
2023-03-17T18:24:36.080Z,46.62
2023-03-17T18:27:04.520Z,46.28
2023-03-17T18:29:33.314Z,46.60
2023-03-17T18:32:00.932Z,46.33
2023-03-17T18:34:32.695Z,46.53
2023-03-17T18:37:01.806Z,46.97
2023-03-17T18:39:29.736Z,46.74
2023-03-17T18:41:57.428Z,46.32
2023-03-17T18:44:25.219Z,46.59
2023-03-17T18:46:53.987Z,46.47
2023-03-17T18:49:23.933Z,46.36
2023-03-17T18:51:51.478Z,46.73
2023-03-17T18:54:18.922Z,46.16
2023-03-17T18:56:46.353Z,46.62
2023-03-17T18:59:13.943Z,46.38
2023-03-17T19:01:41.644Z,45.97
2023-03-17T19:04:10.468Z,45.88
2023-03-17T19:06:39.515Z,45.82
2023-03-17T19:09:09.004Z,46.01
2023-03-17T19:11:38.724Z,45.76
2023-03-17T19:14:06.466Z,45.63
2023-03-17T19:16:34.444Z,46.01
2023-03-17T19:19:02.591Z,45.67
2023-03-17T19:21:32.402Z,46.48
2023-03-17T19:24:01.757Z,45.88
2023-03-17T19:26:30.326Z,45.96
2023-03-17T19:28:58.276Z,46.10
2023-03-17T19:31:25.981Z,46.11
2023-03-17T19:33:55.296Z,46.20
2023-03-17T19:36:22.791Z,46.32
2023-03-17T19:38:51.784Z,45.60
2023-03-17T19:41:19.259Z,45.84
2023-03-17T19:43:46.731Z,46.47
2023-03-17T19:46:14.364Z,46.03
2023-03-17T19:48:42.040Z,45.91
2023-03-17T19:51:09.764Z,46.46
2023-03-17T19:53:38.132Z,46.15
2023-03-17T19:56:07.795Z,46.59
2023-03-17T19:58:35.755Z,46.52
2023-03-17T20:01:04.256Z,46.38
2023-03-17T20:03:32.066Z,46.78
2023-03-17T20:06:00.969Z,47.02
2023-03-17T20:08:28.504Z,47.03
2023-03-17T20:10:56.019Z,47.46
2023-03-17T20:13:24.944Z,47.61
2023-03-17T20:15:52.779Z,47.17
2023-03-17T20:18:20.513Z,46.82
2023-03-17T20:20:52.311Z,46.98
2023-03-17T20:23:20.226Z,47.18
2023-03-17T20:25:49.291Z,47.30
2023-03-17T20:28:17.831Z,48.10
2023-03-17T20:30:47.849Z,47.44
2023-03-17T20:33:15.559Z,48.09
2023-03-17T20:35:45.983Z,48.55
2023-03-17T20:38:14.421Z,48.64
2023-03-17T20:40:42.704Z,47.98
2023-03-17T20:43:10.663Z,47.72
2023-03-17T20:45:38.364Z,47.97
2023-03-17T20:48:10.513Z,48.77
2023-03-17T20:50:38.149Z,48.63
2023-03-17T20:53:05.739Z,48.53
2023-03-17T20:55:33.210Z,48.19
2023-03-17T20:58:01.859Z,48.20
2023-03-17T21:00:31.850Z,48.83
2023-03-17T21:03:00.245Z,49.29
2023-03-17T21:05:29.414Z,48.84
2023-03-17T21:07:57.640Z,48.53
2023-03-17T21:10:25.328Z,48.73
2023-03-17T21:12:52.779Z,48.86
2023-03-17T21:15:22.728Z,49.06
2023-03-17T21:17:50.893Z,48.72
2023-03-17T21:20:19.376Z,49.81
2023-03-17T21:22:48.165Z,50.17
2023-03-17T21:25:15.672Z,51.52
2023-03-17T21:27:43.952Z,52.94
2023-03-17T21:30:14.308Z,53.65
2023-03-17T21:32:42.598Z,54.11
2023-03-17T21:35:10.480Z,53.86
2023-03-17T21:37:38.034Z,54.64
2023-03-17T21:40:08.063Z,55.11
2023-03-17T21:42:35.858Z,55.00
2023-03-17T21:45:03.380Z,55.40
2023-03-17T21:47:31.010Z,56.08
2023-03-17T21:49:58.807Z,56.27
2023-03-17T21:52:26.966Z,56.60
2023-03-17T21:54:54.625Z,56.93
2023-03-17T21:57:23.785Z,56.68
2023-03-17T21:59:51.222Z,56.82
2023-03-17T22:02:18.712Z,57.19
2023-03-17T22:04:47.003Z,57.45
2023-03-17T22:07:14.846Z,57.34
2023-03-17T22:09:42.414Z,58.23
2023-03-17T22:12:10.198Z,58.54
2023-03-17T22:14:39.215Z,58.14
2023-03-17T22:17:06.728Z,58.05
2023-03-17T22:19:34.245Z,57.94
2023-03-17T22:22:03.647Z,58.02
2023-03-17T22:24:32.306Z,58.04
2023-03-17T22:26:59.808Z,57.89
2023-03-17T22:29:27.280Z,58.76
2023-03-17T22:31:56.107Z,58.55
2023-03-17T22:34:24.047Z,58.45
2023-03-17T22:36:51.691Z,58.06
2023-03-17T22:39:19.275Z,58.52
2023-03-17T22:41:46.919Z,58.98
2023-03-17T22:44:14.464Z,59.30
2023-03-17T22:46:42.245Z,59.15
2023-03-17T22:49:11.239Z,59.31
2023-03-17T22:51:41.095Z,59.47
2023-03-17T22:54:11.164Z,59.95
2023-03-17T22:56:38.962Z,60.38
2023-03-17T22:59:06.632Z,60.47
2023-03-17T23:01:34.251Z,60.16
2023-03-17T23:04:02.148Z,61.13
2023-03-17T23:06:31.167Z,61.06
2023-03-17T23:08:58.785Z,61.29
2023-03-17T23:11:27.903Z,60.75
2023-03-17T23:13:55.879Z,62.35
2023-03-17T23:16:23.626Z,61.94
2023-03-17T23:18:51.688Z,62.00
2023-03-17T23:21:22.919Z,62.37
2023-03-17T23:23:51.760Z,62.47
2023-03-17T23:26:19.258Z,62.78
2023-03-17T23:28:47.494Z,62.67
2023-03-17T23:31:15.783Z,63.59
2023-03-17T23:33:43.634Z,62.98
2023-03-17T23:36:13.883Z,63.00
2023-03-17T23:38:41.826Z,62.73
2023-03-17T23:41:11.095Z,63.25
2023-03-17T23:43:39.076Z,63.79
2023-03-17T23:46:06.929Z,64.05
2023-03-17T23:48:34.515Z,64.18
2023-03-17T23:51:02.942Z,63.49
2023-03-17T23:53:30.410Z,64.51
2023-03-17T23:55:59.136Z,64.49
2023-03-17T23:58:28.392Z,64.33
